sensor_id;sensor_type;location;lat;lon;timestamp;P1;durP1;ratioP1;P2;durP2;ratioP2
42176;SDS011;28126;51.060;19.460;2022-11-20T00:02:57;20.08;;;16.35;;
42176;SDS011;28126;51.060;19.460;2022-11-20T00:05:59;21.20;;;15.75;;
42176;SDS011;28126;51.060;19.460;2022-11-20T00:09:03;22.52;;;16.95;;
42176;SDS011;28126;51.060;19.460;2022-11-20T00:12:06;22.32;;;16.82;;
42176;SDS011;28126;51.060;19.460;2022-11-20T00:15:08;23.02;;;17.87;;
42176;SDS011;28126;51.060;19.460;2022-11-20T00:18:12;21.17;;;16.52;;
42176;SDS011;28126;51.060;19.460;2022-11-20T00:21:24;21.65;;;16.52;;
42176;SDS011;28126;51.060;19.460;2022-11-20T00:24:28;20.72;;;17.55;;
42176;SDS011;28126;51.060;19.460;2022-11-20T00:27:30;21.70;;;17.70;;
42176;SDS011;28126;51.060;19.460;2022-11-20T00:30:32;21.35;;;17.40;;
42176;SDS011;28126;51.060;19.460;2022-11-20T00:33:35;21.30;;;16.82;;
42176;SDS011;28126;51.060;19.460;2022-11-20T00:36:37;21.97;;;17.82;;
42176;SDS011;28126;51.060;19.460;2022-11-20T00:39:41;21.27;;;16.95;;
42176;SDS011;28126;51.060;19.460;2022-11-20T00:42:43;22.27;;;18.10;;
42176;SDS011;28126;51.060;19.460;2022-11-20T00:45:46;21.10;;;16.97;;
42176;SDS011;28126;51.060;19.460;2022-11-20T00:48:49;21.52;;;17.17;;
42176;SDS011;28126;51.060;19.460;2022-11-20T00:51:53;23.50;;;17.35;;
42176;SDS011;28126;51.060;19.460;2022-11-20T00:54:55;22.30;;;18.40;;
42176;SDS011;28126;51.060;19.460;2022-11-20T00:57:58;21.60;;;17.85;;
42176;SDS011;28126;51.060;19.460;2022-11-20T01:04:13;22.93;;;18.07;;
42176;SDS011;28126;51.060;19.460;2022-11-20T01:07:15;22.07;;;17.92;;
42176;SDS011;28126;51.060;19.460;2022-11-20T01:10:18;21.42;;;17.40;;
42176;SDS011;28126;51.060;19.460;2022-11-20T01:13:20;20.95;;;16.95;;
42176;SDS011;28126;51.060;19.460;2022-11-20T01:16:44;23.18;;;17.60;;
42176;SDS011;28126;51.060;19.460;2022-11-20T01:19:48;21.05;;;16.45;;
42176;SDS011;28126;51.060;19.460;2022-11-20T01:22:52;20.25;;;16.73;;
42176;SDS011;28126;51.060;19.460;2022-11-20T01:25:55;21.45;;;17.77;;
42176;SDS011;28126;51.060;19.460;2022-11-20T01:28:57;21.62;;;17.70;;
42176;SDS011;28126;51.060;19.460;2022-11-20T01:32:01;21.97;;;17.42;;
42176;SDS011;28126;51.060;19.460;2022-11-20T01:35:04;21.90;;;17.55;;
42176;SDS011;28126;51.060;19.460;2022-11-20T01:38:10;22.75;;;18.00;;
42176;SDS011;28126;51.060;19.460;2022-11-20T01:41:14;22.55;;;18.32;;
42176;SDS011;28126;51.060;19.460;2022-11-20T01:44:49;22.00;;;16.62;;
42176;SDS011;28126;51.060;19.460;2022-11-20T01:47:58;21.60;;;17.40;;
42176;SDS011;28126;51.060;19.460;2022-11-20T01:51:00;19.48;;;16.35;;
42176;SDS011;28126;51.060;19.460;2022-11-20T01:54:05;21.65;;;17.45;;
42176;SDS011;28126;51.060;19.460;2022-11-20T01:57:17;21.70;;;16.87;;
42176;SDS011;28126;51.060;19.460;2022-11-20T02:00:21;20.50;;;18.05;;
42176;SDS011;28126;51.060;19.460;2022-11-20T02:03:24;23.02;;;17.65;;
42176;SDS011;28126;51.060;19.460;2022-11-20T02:06:27;23.07;;;17.98;;
42176;SDS011;28126;51.060;19.460;2022-11-20T02:09:33;21.27;;;17.87;;
42176;SDS011;28126;51.060;19.460;2022-11-20T02:12:36;21.07;;;17.23;;
42176;SDS011;28126;51.060;19.460;2022-11-20T02:15:57;24.92;;;18.10;;
42176;SDS011;28126;51.060;19.460;2022-11-20T02:19:01;23.10;;;17.65;;
42176;SDS011;28126;51.060;19.460;2022-11-20T02:25:16;22.95;;;18.35;;
42176;SDS011;28126;51.060;19.460;2022-11-20T02:28:20;21.57;;;17.12;;
42176;SDS011;28126;51.060;19.460;2022-11-20T02:31:25;21.55;;;18.37;;
42176;SDS011;28126;51.060;19.460;2022-11-20T02:34:28;21.73;;;17.82;;
42176;SDS011;28126;51.060;19.460;2022-11-20T02:37:32;22.13;;;17.92;;
42176;SDS011;28126;51.060;19.460;2022-11-20T02:40:38;22.05;;;17.65;;
42176;SDS011;28126;51.060;19.460;2022-11-20T02:43:43;20.68;;;17.05;;
42176;SDS011;28126;51.060;19.460;2022-11-20T02:46:47;20.30;;;16.77;;
42176;SDS011;28126;51.060;19.460;2022-11-20T02:49:49;20.97;;;16.95;;
42176;SDS011;28126;51.060;19.460;2022-11-20T02:52:52;21.97;;;17.98;;
42176;SDS011;28126;51.060;19.460;2022-11-20T02:55:55;19.10;;;16.80;;
42176;SDS011;28126;51.060;19.460;2022-11-20T02:58:57;23.12;;;18.02;;
42176;SDS011;28126;51.060;19.460;2022-11-20T03:01:59;20.23;;;17.20;;
42176;SDS011;28126;51.060;19.460;2022-11-20T03:05:01;21.48;;;16.90;;
42176;SDS011;28126;51.060;19.460;2022-11-20T03:08:04;20.95;;;18.07;;
42176;SDS011;28126;51.060;19.460;2022-11-20T03:11:07;20.05;;;16.87;;
42176;SDS011;28126;51.060;19.460;2022-11-20T03:14:10;23.12;;;17.75;;
42176;SDS011;28126;51.060;19.460;2022-11-20T03:17:13;20.10;;;17.30;;
42176;SDS011;28126;51.060;19.460;2022-11-20T03:20:15;20.65;;;17.05;;
42176;SDS011;28126;51.060;19.460;2022-11-20T03:23:18;23.07;;;18.48;;
42176;SDS011;28126;51.060;19.460;2022-11-20T03:26:21;21.00;;;17.00;;
42176;SDS011;28126;51.060;19.460;2022-11-20T03:29:26;19.92;;;17.10;;
42176;SDS011;28126;51.060;19.460;2022-11-20T03:32:29;19.50;;;16.85;;
42176;SDS011;28126;51.060;19.460;2022-11-20T03:35:32;20.17;;;16.55;;
42176;SDS011;28126;51.060;19.460;2022-11-20T03:38:35;20.85;;;17.98;;
42176;SDS011;28126;51.060;19.460;2022-11-20T03:41:38;20.32;;;16.42;;
42176;SDS011;28126;51.060;19.460;2022-11-20T03:44:43;20.97;;;16.82;;
42176;SDS011;28126;51.060;19.460;2022-11-20T03:47:46;19.87;;;16.80;;
42176;SDS011;28126;51.060;19.460;2022-11-20T03:50:48;20.23;;;17.55;;
42176;SDS011;28126;51.060;19.460;2022-11-20T03:53:51;19.40;;;16.05;;
42176;SDS011;28126;51.060;19.460;2022-11-20T03:56:56;19.65;;;16.25;;
42176;SDS011;28126;51.060;19.460;2022-11-20T03:59:59;20.02;;;16.77;;
42176;SDS011;28126;51.060;19.460;2022-11-20T04:03:01;20.17;;;16.65;;
42176;SDS011;28126;51.060;19.460;2022-11-20T04:06:09;18.70;;;16.20;;
42176;SDS011;28126;51.060;19.460;2022-11-20T04:09:17;19.95;;;16.30;;
42176;SDS011;28126;51.060;19.460;2022-11-20T04:12:19;20.52;;;16.12;;
42176;SDS011;28126;51.060;19.460;2022-11-20T04:15:22;20.02;;;16.77;;
42176;SDS011;28126;51.060;19.460;2022-11-20T04:18:25;18.67;;;16.42;;
42176;SDS011;28126;51.060;19.460;2022-11-20T04:21:28;20.43;;;16.60;;
42176;SDS011;28126;51.060;19.460;2022-11-20T04:24:30;21.42;;;16.73;;
42176;SDS011;28126;51.060;19.460;2022-11-20T04:27:33;20.55;;;17.35;;
42176;SDS011;28126;51.060;19.460;2022-11-20T04:30:35;19.00;;;16.48;;
42176;SDS011;28126;51.060;19.460;2022-11-20T04:33:37;21.20;;;17.10;;
42176;SDS011;28126;51.060;19.460;2022-11-20T04:36:41;19.10;;;16.62;;
42176;SDS011;28126;51.060;19.460;2022-11-20T04:39:43;20.40;;;15.78;;
42176;SDS011;28126;51.060;19.460;2022-11-20T04:42:46;21.05;;;17.25;;
42176;SDS011;28126;51.060;19.460;2022-11-20T04:45:53;21.23;;;17.12;;
42176;SDS011;28126;51.060;19.460;2022-11-20T04:48:58;18.77;;;15.45;;
42176;SDS011;28126;51.060;19.460;2022-11-20T04:52:01;21.07;;;17.05;;
42176;SDS011;28126;51.060;19.460;2022-11-20T04:55:05;20.35;;;16.55;;
42176;SDS011;28126;51.060;19.460;2022-11-20T04:58:08;19.10;;;16.42;;
42176;SDS011;28126;51.060;19.460;2022-11-20T05:01:15;18.85;;;16.12;;
42176;SDS011;28126;51.060;19.460;2022-11-20T05:04:19;19.73;;;16.20;;
42176;SDS011;28126;51.060;19.460;2022-11-20T05:07:22;19.87;;;16.93;;
42176;SDS011;28126;51.060;19.460;2022-11-20T05:10:25;18.87;;;16.17;;
42176;SDS011;28126;51.060;19.460;2022-11-20T05:13:28;20.25;;;17.00;;
42176;SDS011;28126;51.060;19.460;2022-11-20T05:16:29;19.85;;;17.00;;
42176;SDS011;28126;51.060;19.460;2022-11-20T05:19:31;19.60;;;16.50;;
42176;SDS011;28126;51.060;19.460;2022-11-20T05:22:35;19.85;;;16.55;;
42176;SDS011;28126;51.060;19.460;2022-11-20T05:25:37;20.25;;;16.75;;
42176;SDS011;28126;51.060;19.460;2022-11-20T05:28:39;21.07;;;16.45;;
42176;SDS011;28126;51.060;19.460;2022-11-20T05:31:41;18.87;;;15.75;;
42176;SDS011;28126;51.060;19.460;2022-11-20T05:34:45;19.15;;;16.52;;
42176;SDS011;28126;51.060;19.460;2022-11-20T05:37:48;18.45;;;16.50;;
42176;SDS011;28126;51.060;19.460;2022-11-20T05:40:50;19.45;;;16.55;;
42176;SDS011;28126;51.060;19.460;2022-11-20T05:43:53;18.23;;;15.43;;
42176;SDS011;28126;51.060;19.460;2022-11-20T05:46:58;19.65;;;16.50;;
42176;SDS011;28126;51.060;19.460;2022-11-20T05:50:00;19.07;;;16.57;;
42176;SDS011;28126;51.060;19.460;2022-11-20T05:53:03;18.95;;;16.65;;
42176;SDS011;28126;51.060;19.460;2022-11-20T05:56:06;19.00;;;15.75;;
42176;SDS011;28126;51.060;19.460;2022-11-20T05:59:12;22.17;;;17.48;;
42176;SDS011;28126;51.060;19.460;2022-11-20T06:02:15;19.52;;;16.97;;
42176;SDS011;28126;51.060;19.460;2022-11-20T06:05:18;18.32;;;16.27;;
42176;SDS011;28126;51.060;19.460;2022-11-20T06:08:20;19.77;;;16.67;;
42176;SDS011;28126;51.060;19.460;2022-11-20T06:11:22;19.48;;;16.65;;
42176;SDS011;28126;51.060;19.460;2022-11-20T06:14:25;21.75;;;16.85;;
42176;SDS011;28126;51.060;19.460;2022-11-20T06:17:28;19.27;;;16.57;;
42176;SDS011;28126;51.060;19.460;2022-11-20T06:20:30;21.15;;;16.30;;
42176;SDS011;28126;51.060;19.460;2022-11-20T06:23:35;23.12;;;16.27;;
42176;SDS011;28126;51.060;19.460;2022-11-20T06:26:38;22.85;;;16.23;;
42176;SDS011;28126;51.060;19.460;2022-11-20T06:29:41;20.00;;;16.60;;
42176;SDS011;28126;51.060;19.460;2022-11-20T06:32:44;20.88;;;17.07;;
42176;SDS011;28126;51.060;19.460;2022-11-20T06:35:46;21.90;;;16.00;;
42176;SDS011;28126;51.060;19.460;2022-11-20T06:38:49;24.75;;;16.60;;
42176;SDS011;28126;51.060;19.460;2022-11-20T06:41:51;20.08;;;16.00;;
42176;SDS011;28126;51.060;19.460;2022-11-20T06:44:53;19.95;;;15.65;;
42176;SDS011;28126;51.060;19.460;2022-11-20T06:47:57;26.85;;;16.52;;
42176;SDS011;28126;51.060;19.460;2022-11-20T06:50:59;20.55;;;16.32;;
42176;SDS011;28126;51.060;19.460;2022-11-20T06:54:03;20.90;;;17.60;;
42176;SDS011;28126;51.060;19.460;2022-11-20T06:57:06;21.90;;;17.17;;
42176;SDS011;28126;51.060;19.460;2022-11-20T07:00:10;23.62;;;18.27;;
42176;SDS011;28126;51.060;19.460;2022-11-20T07:03:14;20.48;;;17.00;;
42176;SDS011;28126;51.060;19.460;2022-11-20T07:06:17;22.20;;;17.65;;
42176;SDS011;28126;51.060;19.460;2022-11-20T07:09:20;22.00;;;18.90;;
42176;SDS011;28126;51.060;19.460;2022-11-20T07:12:22;23.52;;;19.32;;
42176;SDS011;28126;51.060;19.460;2022-11-20T07:15:25;21.77;;;18.25;;
42176;SDS011;28126;51.060;19.460;2022-11-20T07:18:27;22.22;;;18.87;;
42176;SDS011;28126;51.060;19.460;2022-11-20T07:21:30;20.90;;;17.50;;
42176;SDS011;28126;51.060;19.460;2022-11-20T07:24:33;22.58;;;17.50;;
42176;SDS011;28126;51.060;19.460;2022-11-20T07:27:35;21.15;;;17.62;;
42176;SDS011;28126;51.060;19.460;2022-11-20T07:30:38;23.12;;;18.50;;
42176;SDS011;28126;51.060;19.460;2022-11-20T07:33:41;22.62;;;18.25;;
42176;SDS011;28126;51.060;19.460;2022-11-20T07:36:44;24.05;;;18.32;;
42176;SDS011;28126;51.060;19.460;2022-11-20T07:39:46;20.97;;;17.07;;
42176;SDS011;28126;51.060;19.460;2022-11-20T07:42:49;23.90;;;19.05;;
42176;SDS011;28126;51.060;19.460;2022-11-20T07:45:57;21.15;;;18.45;;
42176;SDS011;28126;51.060;19.460;2022-11-20T07:49:00;21.17;;;17.87;;
42176;SDS011;28126;51.060;19.460;2022-11-20T07:52:03;23.47;;;18.40;;
42176;SDS011;28126;51.060;19.460;2022-11-20T07:55:07;21.85;;;18.07;;
42176;SDS011;28126;51.060;19.460;2022-11-20T07:58:11;22.55;;;18.32;;
42176;SDS011;28126;51.060;19.460;2022-11-20T08:01:15;21.82;;;18.15;;
42176;SDS011;28126;51.060;19.460;2022-11-20T08:04:18;21.93;;;18.75;;
42176;SDS011;28126;51.060;19.460;2022-11-20T08:07:21;22.40;;;19.07;;
42176;SDS011;28126;51.060;19.460;2022-11-20T08:10:23;22.80;;;17.80;;
42176;SDS011;28126;51.060;19.460;2022-11-20T08:13:25;21.87;;;18.15;;
42176;SDS011;28126;51.060;19.460;2022-11-20T08:16:49;21.48;;;18.10;;
42176;SDS011;28126;51.060;19.460;2022-11-20T08:19:51;24.02;;;17.87;;
42176;SDS011;28126;51.060;19.460;2022-11-20T08:22:57;25.50;;;18.67;;
42176;SDS011;28126;51.060;19.460;2022-11-20T08:26:03;23.27;;;18.67;;
42176;SDS011;28126;51.060;19.460;2022-11-20T08:29:06;25.80;;;19.45;;
42176;SDS011;28126;51.060;19.460;2022-11-20T08:32:08;20.17;;;17.85;;
42176;SDS011;28126;51.060;19.460;2022-11-20T08:35:12;22.15;;;17.75;;
42176;SDS011;28126;51.060;19.460;2022-11-20T08:38:15;27.65;;;18.37;;
42176;SDS011;28126;51.060;19.460;2022-11-20T08:41:19;23.27;;;19.10;;
42176;SDS011;28126;51.060;19.460;2022-11-20T08:44:26;20.75;;;16.80;;
42176;SDS011;28126;51.060;19.460;2022-11-20T08:47:28;24.37;;;19.02;;
42176;SDS011;28126;51.060;19.460;2022-11-20T08:50:31;23.57;;;19.37;;
42176;SDS011;28126;51.060;19.460;2022-11-20T08:53:33;23.60;;;19.27;;
42176;SDS011;28126;51.060;19.460;2022-11-20T08:56:37;23.10;;;19.02;;
42176;SDS011;28126;51.060;19.460;2022-11-20T08:59:39;22.95;;;18.82;;
42176;SDS011;28126;51.060;19.460;2022-11-20T09:02:42;23.87;;;18.17;;
42176;SDS011;28126;51.060;19.460;2022-11-20T09:05:45;22.05;;;18.62;;
42176;SDS011;28126;51.060;19.460;2022-11-20T09:08:47;22.32;;;18.90;;
42176;SDS011;28126;51.060;19.460;2022-11-20T09:11:50;21.33;;;18.23;;
42176;SDS011;28126;51.060;19.460;2022-11-20T09:14:53;22.50;;;18.25;;
42176;SDS011;28126;51.060;19.460;2022-11-20T09:17:58;22.02;;;18.25;;
42176;SDS011;28126;51.060;19.460;2022-11-20T09:21:04;20.23;;;17.52;;
42176;SDS011;28126;51.060;19.460;2022-11-20T09:24:09;23.83;;;19.23;;
42176;SDS011;28126;51.060;19.460;2022-11-20T09:27:12;23.32;;;18.17;;
42176;SDS011;28126;51.060;19.460;2022-11-20T09:30:15;23.05;;;19.02;;
42176;SDS011;28126;51.060;19.460;2022-11-20T09:33:19;23.95;;;18.80;;
42176;SDS011;28126;51.060;19.460;2022-11-20T09:36:21;25.05;;;19.92;;
42176;SDS011;28126;51.060;19.460;2022-11-20T09:39:24;24.10;;;17.92;;
42176;SDS011;28126;51.060;19.460;2022-11-20T09:56:27;26.75;;;22.70;;
42176;SDS011;28126;51.060;19.460;2022-11-20T09:59:38;28.00;;;20.55;;
42176;SDS011;28126;51.060;19.460;2022-11-20T10:02:52;24.55;;;20.65;;
42176;SDS011;28126;51.060;19.460;2022-11-20T10:06:00;25.60;;;20.20;;
42176;SDS011;28126;51.060;19.460;2022-11-20T10:09:16;26.05;;;21.77;;
42176;SDS011;28126;51.060;19.460;2022-11-20T10:19:32;27.55;;;22.07;;
42176;SDS011;28126;51.060;19.460;2022-11-20T10:30:08;26.85;;;21.93;;
42176;SDS011;28126;51.060;19.460;2022-11-20T10:33:17;25.02;;;21.35;;
42176;SDS011;28126;51.060;19.460;2022-11-20T10:36:25;25.00;;;21.27;;
42176;SDS011;28126;51.060;19.460;2022-11-20T10:42:45;24.37;;;20.02;;
42176;SDS011;28126;51.060;19.460;2022-11-20T10:46:08;25.75;;;21.25;;
42176;SDS011;28126;51.060;19.460;2022-11-20T10:49:18;25.48;;;20.23;;
42176;SDS011;28126;51.060;19.460;2022-11-20T10:52:32;25.15;;;19.32;;
42176;SDS011;28126;51.060;19.460;2022-11-20T10:56:04;25.37;;;19.45;;
42176;SDS011;28126;51.060;19.460;2022-11-20T10:59:24;24.32;;;20.25;;
42176;SDS011;28126;51.060;19.460;2022-11-20T11:02:43;26.40;;;19.57;;
42176;SDS011;28126;51.060;19.460;2022-11-20T11:09:16;25.82;;;20.55;;
42176;SDS011;28126;51.060;19.460;2022-11-20T11:12:20;23.87;;;19.32;;
42176;SDS011;28126;51.060;19.460;2022-11-20T11:18:40;24.20;;;19.75;;
42176;SDS011;28126;51.060;19.460;2022-11-20T11:21:53;23.27;;;19.35;;
42176;SDS011;28126;51.060;19.460;2022-11-20T11:24:57;25.82;;;20.60;;
42176;SDS011;28126;51.060;19.460;2022-11-20T11:31:31;23.52;;;18.23;;
42176;SDS011;28126;51.060;19.460;2022-11-20T11:34:36;22.25;;;17.98;;
42176;SDS011;28126;51.060;19.460;2022-11-20T11:37:38;21.75;;;16.95;;
42176;SDS011;28126;51.060;19.460;2022-11-20T11:40:40;20.40;;;16.10;;
42176;SDS011;28126;51.060;19.460;2022-11-20T11:43:49;19.23;;;15.83;;
42176;SDS011;28126;51.060;19.460;2022-11-20T11:50:29;19.57;;;15.30;;
42176;SDS011;28126;51.060;19.460;2022-11-20T11:53:32;17.45;;;15.53;;
42176;SDS011;28126;51.060;19.460;2022-11-20T11:56:36;17.82;;;14.65;;
42176;SDS011;28126;51.060;19.460;2022-11-20T11:59:54;18.32;;;14.25;;
42176;SDS011;28126;51.060;19.460;2022-11-20T12:03:10;17.90;;;13.95;;
42176;SDS011;28126;51.060;19.460;2022-11-20T12:06:27;15.83;;;13.85;;
42176;SDS011;28126;51.060;19.460;2022-11-20T12:09:34;17.95;;;14.73;;
42176;SDS011;28126;51.060;19.460;2022-11-20T12:12:40;18.77;;;15.85;;
42176;SDS011;28126;51.060;19.460;2022-11-20T12:15:46;22.20;;;17.80;;
42176;SDS011;28126;51.060;19.460;2022-11-20T12:18:50;25.10;;;20.25;;
42176;SDS011;28126;51.060;19.460;2022-11-20T12:21:56;28.92;;;20.92;;
42176;SDS011;28126;51.060;19.460;2022-11-20T12:25:12;42.27;;;25.25;;
42176;SDS011;28126;51.060;19.460;2022-11-20T12:28:33;54.98;;;29.82;;
42176;SDS011;28126;51.060;19.460;2022-11-20T12:31:49;55.48;;;28.87;;
42176;SDS011;28126;51.060;19.460;2022-11-20T12:35:00;49.38;;;26.80;;
42176;SDS011;28126;51.060;19.460;2022-11-20T12:45:46;45.80;;;21.85;;
42176;SDS011;28126;51.060;19.460;2022-11-20T12:52:46;32.58;;;19.32;;
42176;SDS011;28126;51.060;19.460;2022-11-20T13:09:19;20.48;;;15.35;;
42176;SDS011;28126;51.060;19.460;2022-11-20T13:22:23;20.37;;;13.30;;
42176;SDS011;28126;51.060;19.460;2022-11-20T13:25:32;20.27;;;13.45;;
42176;SDS011;28126;51.060;19.460;2022-11-20T13:28:39;21.77;;;13.70;;
42176;SDS011;28126;51.060;19.460;2022-11-20T13:31:43;19.80;;;13.95;;
42176;SDS011;28126;51.060;19.460;2022-11-20T13:34:56;18.62;;;13.40;;
42176;SDS011;28126;51.060;19.460;2022-11-20T13:38:14;15.58;;;11.80;;
42176;SDS011;28126;51.060;19.460;2022-11-20T13:41:26;17.62;;;10.93;;
42176;SDS011;28126;51.060;19.460;2022-11-20T13:47:49;17.95;;;11.48;;
42176;SDS011;28126;51.060;19.460;2022-11-20T14:01:33;16.50;;;11.57;;
42176;SDS011;28126;51.060;19.460;2022-11-20T14:04:36;22.80;;;13.18;;
42176;SDS011;28126;51.060;19.460;2022-11-20T14:07:41;18.75;;;11.53;;
42176;SDS011;28126;51.060;19.460;2022-11-20T14:10:44;19.73;;;11.18;;
42176;SDS011;28126;51.060;19.460;2022-11-20T14:13:56;17.87;;;12.18;;
42176;SDS011;28126;51.060;19.460;2022-11-20T14:20:28;20.75;;;12.93;;
42176;SDS011;28126;51.060;19.460;2022-11-20T14:23:32;15.98;;;12.53;;
42176;SDS011;28126;51.060;19.460;2022-11-20T14:26:34;21.37;;;12.98;;
42176;SDS011;28126;51.060;19.460;2022-11-20T14:29:38;17.80;;;11.75;;
42176;SDS011;28126;51.060;19.460;2022-11-20T14:32:42;15.05;;;11.12;;
42176;SDS011;28126;51.060;19.460;2022-11-20T14:35:49;17.57;;;11.53;;
42176;SDS011;28126;51.060;19.460;2022-11-20T14:38:59;15.30;;;11.00;;
42176;SDS011;28126;51.060;19.460;2022-11-20T14:42:02;15.80;;;10.85;;
42176;SDS011;28126;51.060;19.460;2022-11-20T14:45:16;14.83;;;11.00;;
42176;SDS011;28126;51.060;19.460;2022-11-20T14:48:21;15.38;;;10.90;;
42176;SDS011;28126;51.060;19.460;2022-11-20T14:51:31;18.98;;;11.80;;
42176;SDS011;28126;51.060;19.460;2022-11-20T14:54:45;14.60;;;10.75;;
42176;SDS011;28126;51.060;19.460;2022-11-20T14:57:59;14.78;;;12.10;;
42176;SDS011;28126;51.060;19.460;2022-11-20T15:01:06;15.63;;;11.75;;
42176;SDS011;28126;51.060;19.460;2022-11-20T15:07:25;15.28;;;11.33;;
42176;SDS011;28126;51.060;19.460;2022-11-20T15:13:38;19.00;;;13.98;;
42176;SDS011;28126;51.060;19.460;2022-11-20T15:16:41;14.73;;;11.75;;
42176;SDS011;28126;51.060;19.460;2022-11-20T15:19:43;19.27;;;15.08;;
42176;SDS011;28126;51.060;19.460;2022-11-20T15:22:44;19.42;;;15.28;;
42176;SDS011;28126;51.060;19.460;2022-11-20T15:25:48;17.40;;;13.18;;
42176;SDS011;28126;51.060;19.460;2022-11-20T15:28:52;17.10;;;13.28;;
42176;SDS011;28126;51.060;19.460;2022-11-20T15:31:56;22.58;;;15.13;;
42176;SDS011;28126;51.060;19.460;2022-11-20T15:35:00;22.37;;;15.68;;
42176;SDS011;28126;51.060;19.460;2022-11-20T15:38:02;19.40;;;14.73;;
42176;SDS011;28126;51.060;19.460;2022-11-20T15:41:06;19.45;;;14.50;;
42176;SDS011;28126;51.060;19.460;2022-11-20T15:44:08;20.25;;;15.08;;
42176;SDS011;28126;51.060;19.460;2022-11-20T15:47:10;20.82;;;16.17;;
42176;SDS011;28126;51.060;19.460;2022-11-20T15:50:13;23.70;;;16.50;;
42176;SDS011;28126;51.060;19.460;2022-11-20T15:53:17;22.22;;;16.02;;
42176;SDS011;28126;51.060;19.460;2022-11-20T15:56:20;22.40;;;15.93;;
42176;SDS011;28126;51.060;19.460;2022-11-20T15:59:23;20.65;;;16.75;;
42176;SDS011;28126;51.060;19.460;2022-11-20T16:02:26;23.52;;;17.55;;
42176;SDS011;28126;51.060;19.460;2022-11-20T16:05:28;21.52;;;18.35;;
42176;SDS011;28126;51.060;19.460;2022-11-20T16:08:31;25.55;;;19.10;;
42176;SDS011;28126;51.060;19.460;2022-11-20T16:11:35;24.55;;;19.32;;
42176;SDS011;28126;51.060;19.460;2022-11-20T16:14:37;24.85;;;20.08;;
42176;SDS011;28126;51.060;19.460;2022-11-20T16:17:57;23.92;;;19.15;;
42176;SDS011;28126;51.060;19.460;2022-11-20T16:20:59;24.77;;;20.05;;
42176;SDS011;28126;51.060;19.460;2022-11-20T16:24:02;27.35;;;21.50;;
42176;SDS011;28126;51.060;19.460;2022-11-20T16:27:07;26.75;;;22.37;;
42176;SDS011;28126;51.060;19.460;2022-11-20T16:30:09;29.05;;;22.93;;
42176;SDS011;28126;51.060;19.460;2022-11-20T16:33:14;27.37;;;21.93;;
42176;SDS011;28126;51.060;19.460;2022-11-20T16:36:18;27.82;;;21.52;;
42176;SDS011;28126;51.060;19.460;2022-11-20T16:39:21;29.50;;;22.82;;
42176;SDS011;28126;51.060;19.460;2022-11-20T16:42:26;31.27;;;23.62;;
42176;SDS011;28126;51.060;19.460;2022-11-20T16:45:27;30.48;;;24.00;;
42176;SDS011;28126;51.060;19.460;2022-11-20T16:48:29;31.42;;;24.70;;
42176;SDS011;28126;51.060;19.460;2022-11-20T16:51:31;28.90;;;23.60;;
42176;SDS011;28126;51.060;19.460;2022-11-20T16:54:37;28.95;;;24.43;;
42176;SDS011;28126;51.060;19.460;2022-11-20T16:57:39;28.60;;;24.45;;
42176;SDS011;28126;51.060;19.460;2022-11-20T17:00:42;35.15;;;26.23;;
42176;SDS011;28126;51.060;19.460;2022-11-20T17:03:45;32.33;;;25.08;;
42176;SDS011;28126;51.060;19.460;2022-11-20T17:06:50;31.33;;;25.43;;
42176;SDS011;28126;51.060;19.460;2022-11-20T17:09:52;29.18;;;24.60;;
42176;SDS011;28126;51.060;19.460;2022-11-20T17:12:54;27.07;;;22.90;;
42176;SDS011;28126;51.060;19.460;2022-11-20T17:15:59;26.33;;;22.07;;
42176;SDS011;28126;51.060;19.460;2022-11-20T17:19:12;22.87;;;19.95;;
42176;SDS011;28126;51.060;19.460;2022-11-20T17:22:15;23.22;;;19.67;;
42176;SDS011;28126;51.060;19.460;2022-11-20T17:25:17;24.82;;;18.95;;
42176;SDS011;28126;51.060;19.460;2022-11-20T17:28:20;22.42;;;17.95;;
42176;SDS011;28126;51.060;19.460;2022-11-20T17:31:22;23.18;;;18.40;;
42176;SDS011;28126;51.060;19.460;2022-11-20T17:34:26;22.07;;;17.67;;
42176;SDS011;28126;51.060;19.460;2022-11-20T17:37:28;20.45;;;16.62;;
42176;SDS011;28126;51.060;19.460;2022-11-20T17:40:29;18.27;;;15.72;;
42176;SDS011;28126;51.060;19.460;2022-11-20T17:43:32;19.37;;;15.70;;
42176;SDS011;28126;51.060;19.460;2022-11-20T17:46:38;18.35;;;14.85;;
42176;SDS011;28126;51.060;19.460;2022-11-20T17:49:40;17.42;;;15.15;;
42176;SDS011;28126;51.060;19.460;2022-11-20T17:52:42;19.32;;;14.53;;
42176;SDS011;28126;51.060;19.460;2022-11-20T17:55:53;19.15;;;15.53;;
42176;SDS011;28126;51.060;19.460;2022-11-20T17:59:11;19.42;;;15.70;;
42176;SDS011;28126;51.060;19.460;2022-11-20T18:02:14;16.77;;;14.65;;
42176;SDS011;28126;51.060;19.460;2022-11-20T18:05:16;18.00;;;14.58;;
42176;SDS011;28126;51.060;19.460;2022-11-20T18:08:18;18.57;;;15.38;;
42176;SDS011;28126;51.060;19.460;2022-11-20T18:11:31;20.72;;;16.27;;
42176;SDS011;28126;51.060;19.460;2022-11-20T18:14:38;19.87;;;16.12;;
42176;SDS011;28126;51.060;19.460;2022-11-20T18:17:40;17.62;;;15.00;;
42176;SDS011;28126;51.060;19.460;2022-11-20T18:20:42;18.02;;;15.10;;
42176;SDS011;28126;51.060;19.460;2022-11-20T18:23:43;18.35;;;15.25;;
42176;SDS011;28126;51.060;19.460;2022-11-20T18:26:45;20.35;;;15.93;;
42176;SDS011;28126;51.060;19.460;2022-11-20T18:29:46;17.05;;;14.47;;
42176;SDS011;28126;51.060;19.460;2022-11-20T18:32:51;17.95;;;14.60;;
42176;SDS011;28126;51.060;19.460;2022-11-20T18:35:53;17.82;;;15.55;;
42176;SDS011;28126;51.060;19.460;2022-11-20T18:38:55;17.50;;;14.95;;
42176;SDS011;28126;51.060;19.460;2022-11-20T18:42:00;16.95;;;14.80;;
42176;SDS011;28126;51.060;19.460;2022-11-20T18:45:21;17.35;;;14.93;;
42176;SDS011;28126;51.060;19.460;2022-11-20T18:48:23;17.35;;;15.00;;
42176;SDS011;28126;51.060;19.460;2022-11-20T18:51:26;18.82;;;13.83;;
42176;SDS011;28126;51.060;19.460;2022-11-20T18:54:28;19.23;;;15.38;;
42176;SDS011;28126;51.060;19.460;2022-11-20T18:57:30;20.37;;;15.25;;
42176;SDS011;28126;51.060;19.460;2022-11-20T19:00:33;19.57;;;14.68;;
42176;SDS011;28126;51.060;19.460;2022-11-20T19:03:36;19.17;;;13.30;;
42176;SDS011;28126;51.060;19.460;2022-11-20T19:06:39;26.40;;;15.65;;
42176;SDS011;28126;51.060;19.460;2022-11-20T19:09:43;16.97;;;14.43;;
42176;SDS011;28126;51.060;19.460;2022-11-20T19:12:52;19.85;;;14.68;;
42176;SDS011;28126;51.060;19.460;2022-11-20T19:15:54;18.80;;;13.98;;
42176;SDS011;28126;51.060;19.460;2022-11-20T19:19:01;18.80;;;14.95;;
42176;SDS011;28126;51.060;19.460;2022-11-20T19:22:05;16.80;;;14.03;;
42176;SDS011;28126;51.060;19.460;2022-11-20T19:25:08;18.55;;;13.60;;
42176;SDS011;28126;51.060;19.460;2022-11-20T19:28:10;16.02;;;12.58;;
42176;SDS011;28126;51.060;19.460;2022-11-20T19:31:12;17.42;;;12.70;;
42176;SDS011;28126;51.060;19.460;2022-11-20T19:34:22;17.82;;;11.68;;
42176;SDS011;28126;51.060;19.460;2022-11-20T19:37:25;18.55;;;13.30;;